Flugplatz Ahrenlohe (EDHO)

Hier findest Du alle Informationen zum Flugplatz Ahrenlohe (EDHO).

Informationen für Piloten zum Flugplatz Ahrenlohe

Hier findest Du alle relevanten Informationen, die Du als Pilot benötigst, um Ahrenlohe anzufliegen.

Flugplatz: Ahrenlohe ICAO-Code: EDHO
Frequenz Turm: 122,600 Mhz GAFOR Gebiet: 3
Frequenz Ground: 122,600 Mhz Mogas: nein
Platzrunde: SE 1000 ft Landegebühr: -
Platzhöhe: - Sunrise: 07:11 Uhr UTC
Pisten: 05/23 - 500 m x 15 m, ASPH Sunset: 15:56 Uhr UTC

Flugwetter am Flugplatz Ahrenlohe

Die METAR Information stammen aus EDDH (18.06 km entfernt).

METAR Code:
2023/01/06 14:50
EDDH 061450Z AUTO 26007KT 230V290 9999 BKN026 09/05 Q1014 NOSIG

Temperatur: 2,6 °C Niederschlag: 0,4 mm (1h) Wind: 0,9 kt (max.: 7,0 kt in Böen)
Temperatur (min.): 1,8 °C Luftdruck: 1028 hPa Windrichtung: 355 °
Temperatur (max.): 3,0 °C Luftfeuchtigkeit: 80 % Bewölkung: 2/8

Flugschulen am Flugplatz Ahrenlohe

Am Flugplatz Ahrenlohe gibt es leider keine Flugschule.

Benachbarte Flugplätze und Flugschulen

Es gibt 9 weitere Flugplätze in einem Umkreis von 50 km um den Flugplatz Ahrenlohe.

Jetzt anmelden

Passwort vergessen

Umfrage Archiv

Sendet Ihr ADS-B und/oder FLARM?

Ja
84.7 %
Nein
15.3 %
Stimmen: 274 | Diskussion
Anzeige: Roland Aircraft
Statistik Alle Mitglieder

Aktuell sind 48 Besucher online, davon 2 Mitglieder und 46 Gäste.


Mitglieder online:
Higgy  aviatrix 

Anzeige: ULPower Aero Engines Anzeige: EasyVFR